Time;durP1;ratioP1;P1;durP2;ratioP2;P2;SDS_P1;SDS_P2;PMS_P1;PMS_P2;Temp;Humidity;BMP_temperature;BMP_pressure;BME280_temperature;BME280_humidity;BME280_pressure;Samples;Min_cycle;Max_cycle;Signal;HPM_P1;HPM_P2
2023/07/17 00:00:57;;;;;;;7.90;2.38;;;16.80;99.90;;;;;;5014872;28;20076;-67
2023/07/17 00:03:22;;;;;;;12.18;2.55;;;16.90;99.90;;;;;;5014676;28;20045;-67
2023/07/17 00:05:50;;;;;;;7.20;2.53;;;17.00;99.90;;;;;;5014687;28;20414;-67
2023/07/17 00:08:15;;;;;;;10.85;2.72;;;16.90;99.90;;;;;;5011255;28;20112;-67
2023/07/17 00:10:43;;;;;;;7.07;2.60;;;17.00;99.90;;;;;;5014774;28;20136;-67
2023/07/17 00:13:09;;;;;;;8.05;2.72;;;17.00;99.90;;;;;;5014781;28;20038;-67
2023/07/17 00:15:34;;;;;;;6.30;2.20;;;16.90;99.90;;;;;;5014445;28;20135;-67
2023/07/17 00:18:00;;;;;;;8.20;3.00;;;16.90;99.90;;;;;;5014334;28;20034;-67
2023/07/17 00:20:25;;;;;;;8.23;2.60;;;17.00;99.90;;;;;;5014328;28;20073;-67
2023/07/17 00:22:51;;;;;;;6.95;2.92;;;16.90;99.90;;;;;;5014441;28;20037;-67
2023/07/17 00:25:17;;;;;;;6.45;2.35;;;16.90;99.90;;;;;;5014511;28;20065;-67
2023/07/17 00:27:42;;;;;;;5.65;2.47;;;16.90;99.90;;;;;;5014231;28;20068;-67
2023/07/17 00:30:08;;;;;;;8.82;3.30;;;16.80;99.90;;;;;;5014266;28;20042;-67
2023/07/17 00:32:34;;;;;;;9.20;2.97;;;16.90;99.90;;;;;;5014108;28;20073;-67
2023/07/17 00:34:59;;;;;;;7.45;3.40;;;16.90;99.90;;;;;;5014403;28;20049;-67
2023/07/17 00:37:25;;;;;;;8.30;2.92;;;16.90;99.90;;;;;;5014094;28;20061;-67
2023/07/17 00:39:51;;;;;;;8.93;3.55;;;16.80;99.90;;;;;;5014226;28;20084;-67
2023/07/17 00:42:17;;;;;;;8.40;2.58;;;16.90;99.90;;;;;;5014212;28;20096;-67
2023/07/17 00:44:42;;;;;;;10.25;3.65;;;16.70;99.90;;;;;;5014009;28;20034;-67
2023/07/17 00:47:10;;;;;;;4.88;2.95;;;16.80;99.90;;;;;;5013611;28;20030;-67
2023/07/17 00:49:36;;;;;;;6.88;3.17;;;16.70;99.90;;;;;;5014102;28;20448;-67
2023/07/17 00:52:02;;;;;;;10.93;3.42;;;16.60;99.90;;;;;;5014067;28;20042;-66
2023/07/17 00:54:29;;;;;;;8.88;3.25;;;16.70;99.90;;;;;;5013987;28;20053;-67
2023/07/17 00:56:59;;;;;;;14.25;4.40;;;16.60;99.90;;;;;;5013593;28;20049;-67
2023/07/17 00:59:26;;;;;;;9.55;3.10;;;16.50;99.90;;;;;;5013151;28;20631;-67
2023/07/17 01:01:52;;;;;;;7.93;3.15;;;16.50;99.90;;;;;;5013411;28;20498;-65
2023/07/17 01:04:17;;;;;;;9.65;3.72;;;16.60;99.90;;;;;;5013649;28;20405;-65
2023/07/17 01:06:43;;;;;;;9.18;3.58;;;16.60;99.90;;;;;;5013455;28;20038;-65
2023/07/17 01:09:10;;;;;;;12.02;3.78;;;16.30;99.90;;;;;;5013634;28;20041;-64
2023/07/17 01:11:36;;;;;;;9.13;3.83;;;16.50;99.90;;;;;;5013596;28;20120;-65
2023/07/17 01:14:02;;;;;;;13.13;3.58;;;16.50;99.90;;;;;;5013467;28;20417;-65
2023/07/17 01:16:27;;;;;;;10.80;3.63;;;16.50;99.90;;;;;;5013009;28;20050;-65
2023/07/17 01:18:53;;;;;;;7.93;3.47;;;16.40;99.90;;;;;;5013366;28;20038;-65
2023/07/17 01:21:25;;;;;;;10.63;3.80;;;16.40;99.90;;;;;;5013461;28;20052;-65
2023/07/17 01:23:52;;;;;;;9.37;3.47;;;16.40;99.90;;;;;;5013467;28;20084;-65
2023/07/17 01:26:18;;;;;;;7.57;2.97;;;16.40;99.90;;;;;;5013229;28;20042;-65
2023/07/17 01:28:44;;;;;;;8.85;3.67;;;16.30;99.90;;;;;;5013370;28;20045;-68
2023/07/17 01:31:11;;;;;;;10.82;3.65;;;16.20;99.90;;;;;;5013710;28;20069;-65
2023/07/17 01:33:36;;;;;;;10.35;3.63;;;16.20;99.90;;;;;;5013312;28;20453;-66
2023/07/17 01:36:04;;;;;;;6.65;3.17;;;16.30;99.90;;;;;;5013318;28;20033;-65
2023/07/17 01:38:30;;;;;;;9.25;3.80;;;16.10;99.90;;;;;;5012070;28;20038;-65
2023/07/17 01:40:56;;;;;;;10.93;4.05;;;16.10;99.90;;;;;;5013191;28;20070;-65
2023/07/17 01:43:22;;;;;;;9.25;3.75;;;16.10;99.90;;;;;;5013049;28;20401;-65
2023/07/17 01:45:47;;;;;;;8.70;3.90;;;16.30;99.90;;;;;;5013098;28;20038;-65
2023/07/17 01:48:17;;;;;;;14.13;3.67;;;16.30;99.90;;;;;;5013276;28;20030;-65
2023/07/17 01:50:44;;;;;;;6.55;3.42;;;16.20;99.90;;;;;;5013046;28;20172;-65
2023/07/17 01:53:10;;;;;;;9.82;3.80;;;16.10;99.90;;;;;;5012859;28;20509;-65
2023/07/17 01:55:36;;;;;;;13.63;3.50;;;16.10;99.90;;;;;;5012745;28;20119;-65
2023/07/17 01:58:02;;;;;;;9.60;3.17;;;16.10;99.90;;;;;;5012651;28;20078;-66
2023/07/17 02:00:27;;;;;;;9.52;3.35;;;16.20;99.90;;;;;;5012795;28;20104;-66
2023/07/17 02:02:53;;;;;;;8.23;3.17;;;16.00;99.90;;;;;;5012626;28;20034;-66
2023/07/17 02:05:20;;;;;;;7.93;2.92;;;16.00;99.90;;;;;;5012773;28;20048;-67
2023/07/17 02:07:46;;;;;;;11.93;3.08;;;16.00;99.90;;;;;;5012514;28;20041;-66
2023/07/17 02:10:12;;;;;;;8.18;2.85;;;16.00;99.90;;;;;;5012589;28;20034;-66
2023/07/17 02:12:37;;;;;;;4.30;2.65;;;16.00;99.90;;;;;;5011527;28;20030;-66
2023/07/17 02:15:03;;;;;;;8.00;2.90;;;16.00;99.90;;;;;;5012617;28;20038;-66
2023/07/17 02:17:28;;;;;;;11.43;3.55;;;15.80;99.90;;;;;;5012341;28;20156;-66
2023/07/17 02:19:54;;;;;;;7.88;2.60;;;15.80;99.90;;;;;;5043596;23;20049;-68
2023/07/17 02:22:20;;;;;;;6.93;2.42;;;15.80;99.90;;;;;;5014150;28;20042;-69
2023/07/17 02:24:45;;;;;;;8.63;2.55;;;15.80;99.90;;;;;;5031836;28;20069;-69
2023/07/17 02:27:11;;;;;;;7.13;2.60;;;15.60;99.90;;;;;;5030961;28;20095;-69
2023/07/17 02:29:36;;;;;;;6.75;2.20;;;15.70;99.90;;;;;;5031903;28;20125;-69
2023/07/17 02:32:02;;;;;;;8.35;2.35;;;15.70;99.90;;;;;;5031944;28;20072;-69
2023/07/17 02:34:28;;;;;;;3.67;2.45;;;15.70;99.90;;;;;;5031892;28;20042;-69
2023/07/17 02:36:54;;;;;;;5.95;2.35;;;15.50;99.90;;;;;;5031536;28;20037;-69
2023/07/17 02:39:20;;;;;;;7.57;2.10;;;15.50;99.90;;;;;;5031601;28;20120;-69
2023/07/17 02:41:46;;;;;;;8.60;2.38;;;15.50;99.90;;;;;;5013880;28;20045;-69
2023/07/17 02:44:13;;;;;;;6.20;1.88;;;15.50;99.90;;;;;;5031549;28;20033;-68
2023/07/17 02:46:39;;;;;;;6.65;2.72;;;15.50;99.90;;;;;;5013601;28;20167;-69
2023/07/17 02:49:06;;;;;;;6.38;2.72;;;15.40;99.90;;;;;;5031520;28;20124;-69
2023/07/17 02:51:32;;;;;;;5.95;2.42;;;15.30;99.90;;;;;;4997406;28;20048;-69
2023/07/17 02:53:58;;;;;;;6.85;2.17;;;15.50;99.90;;;;;;5031432;28;20416;-69
2023/07/17 02:56:23;;;;;;;7.25;2.33;;;15.50;99.90;;;;;;5031214;28;20671;-69
2023/07/17 02:58:53;;;;;;;9.30;3.00;;;15.20;99.90;;;;;;5013736;28;20041;-68
2023/07/17 03:01:20;;;;;;;6.90;2.10;;;15.20;99.90;;;;;;5031485;28;20046;-69
2023/07/17 03:03:46;;;;;;;7.43;2.40;;;15.30;99.90;;;;;;5031542;28;20045;-68
2023/07/17 03:06:11;;;;;;;9.82;2.03;;;15.40;99.90;;;;;;5013745;28;20044;-69
2023/07/17 03:08:37;;;;;;;8.02;2.65;;;15.30;99.90;;;;;;5031192;28;20034;-69
2023/07/17 03:11:05;;;;;;;4.07;2.13;;;15.30;99.90;;;;;;5013520;28;20120;-69
2023/07/17 03:13:31;;;;;;;7.65;2.42;;;15.30;99.90;;;;;;5031374;28;20037;-69
2023/07/17 03:16:01;;;;;;;5.18;2.20;;;15.20;99.90;;;;;;5031085;28;20045;-69
2023/07/17 03:18:27;;;;;;;8.75;2.53;;;15.20;99.90;;;;;;5031310;28;20424;-69
2023/07/17 03:20:54;;;;;;;7.00;2.40;;;15.20;99.90;;;;;;5030658;28;20033;-69
2023/07/17 03:23:20;;;;;;;6.47;2.78;;;15.30;99.90;;;;;;5032644;28;20116;-69
2023/07/17 03:25:45;;;;;;;7.20;2.35;;;15.30;99.90;;;;;;5034841;28;20135;-69
2023/07/17 03:28:11;;;;;;;9.43;2.75;;;15.10;99.90;;;;;;5017329;28;20053;-69
2023/07/17 03:30:36;;;;;;;6.15;2.20;;;15.30;99.90;;;;;;5017228;28;20054;-69
2023/07/17 03:33:03;;;;;;;5.72;2.45;;;15.30;99.90;;;;;;5017618;28;20673;-69
2023/07/17 03:35:28;;;;;;;5.53;2.47;;;15.20;99.90;;;;;;5034996;28;20045;-69
2023/07/17 03:37:54;;;;;;;6.13;2.10;;;15.30;99.90;;;;;;5016961;28;20148;-69
2023/07/17 03:40:19;;;;;;;4.20;1.92;;;15.20;99.90;;;;;;5034738;28;20042;-69
2023/07/17 03:42:45;;;;;;;4.35;2.20;;;15.10;99.90;;;;;;5035003;28;20037;-69
2023/07/17 03:45:11;;;;;;;5.63;2.15;;;15.20;99.90;;;;;;5017009;28;20558;-69
2023/07/17 03:47:36;;;;;;;6.68;2.17;;;15.00;99.90;;;;;;5034400;28;20047;-69
2023/07/17 03:50:02;;;;;;;7.68;2.90;;;15.20;99.90;;;;;;5017143;28;20041;-69
2023/07/17 03:52:28;;;;;;;6.90;2.58;;;15.20;99.90;;;;;;5034738;28;20029;-69
2023/07/17 03:54:53;;;;;;;5.07;2.38;;;15.10;99.90;;;;;;5034947;28;20479;-69
2023/07/17 03:57:19;;;;;;;6.18;2.40;;;15.10;99.90;;;;;;5016568;28;20037;-69
2023/07/17 03:59:53;;;;;;;5.13;2.47;;;15.00;99.90;;;;;;5034468;28;20042;-69
2023/07/17 04:02:18;;;;;;;4.30;2.22;;;15.10;99.90;;;;;;5016648;28;20091;-69
2023/07/17 04:04:44;;;;;;;5.60;2.55;;;15.10;99.90;;;;;;5016650;28;20443;-69
2023/07/17 04:07:10;;;;;;;9.18;3.00;;;15.10;99.90;;;;;;5034081;28;20044;-68
2023/07/17 04:09:35;;;;;;;5.05;2.65;;;15.20;99.90;;;;;;5034314;28;20471;-69
2023/07/17 04:12:03;;;;;;;7.28;2.75;;;15.10;99.90;;;;;;5034392;28;20037;-69
2023/07/17 04:14:30;;;;;;;9.63;2.42;;;15.00;99.90;;;;;;5016474;28;20053;-69
2023/07/17 04:16:55;;;;;;;8.75;3.20;;;15.20;99.90;;;;;;5034091;28;20150;-69
2023/07/17 04:19:21;;;;;;;5.25;2.65;;;15.20;99.90;;;;;;5033995;28;20033;-69
2023/07/17 04:21:46;;;;;;;7.53;2.63;;;15.10;99.90;;;;;;5016430;28;20037;-69
2023/07/17 04:24:12;;;;;;;8.23;3.13;;;15.00;99.90;;;;;;5034334;28;20115;-69
2023/07/17 04:26:37;;;;;;;7.72;3.35;;;15.10;99.90;;;;;;5015964;28;20423;-69
2023/07/17 04:29:03;;;;;;;9.15;2.78;;;15.20;99.90;;;;;;5033981;28;20513;-69
2023/07/17 04:31:28;;;;;;;6.00;2.65;;;15.10;99.90;;;;;;5034046;28;20041;-69
2023/07/17 04:33:54;;;;;;;8.40;2.88;;;15.20;99.90;;;;;;5033748;28;20049;-69
2023/07/17 04:36:19;;;;;;;7.13;2.60;;;15.20;99.90;;;;;;5032757;28;20037;-69
2023/07/17 04:38:45;;;;;;;5.93;2.60;;;15.30;99.90;;;;;;5033960;28;20060;-69
2023/07/17 04:41:10;;;;;;;5.72;2.10;;;15.30;99.90;;;;;;5033756;28;20092;-69
2023/07/17 04:43:36;;;;;;;7.05;3.53;;;15.40;99.90;;;;;;5016116;28;20041;-69
2023/07/17 04:46:03;;;;;;;11.50;3.88;;;15.40;99.90;;;;;;5033528;28;20034;-69
2023/07/17 04:48:28;;;;;;;5.90;2.42;;;15.50;99.90;;;;;;5016211;28;20492;-69
2023/07/17 04:50:54;;;;;;;5.20;2.40;;;15.60;99.90;;;;;;5015946;28;20045;-69
2023/07/17 04:53:19;;;;;;;6.85;2.55;;;15.50;99.90;;;;;;5032218;28;20515;-69
2023/07/17 04:55:45;;;;;;;6.75;2.42;;;15.70;99.90;;;;;;5032792;28;20116;-69
2023/07/17 04:58:11;;;;;;;10.43;3.08;;;15.80;99.90;;;;;;5033176;28;20492;-68
2023/07/17 05:00:36;;;;;;;8.23;2.63;;;15.80;99.90;;;;;;5032930;28;20115;-68
2023/07/17 05:03:02;;;;;;;7.05;2.10;;;15.90;99.90;;;;;;5033117;28;20044;-68
2023/07/17 05:05:28;;;;;;;7.55;2.58;;;16.00;99.90;;;;;;5015747;28;20427;-68
2023/07/17 05:07:54;;;;;;;6.72;2.35;;;16.10;99.90;;;;;;5015375;28;20045;-68
2023/07/17 05:10:19;;;;;;;9.52;3.20;;;16.40;99.90;;;;;;5015784;28;20341;-68
2023/07/17 05:12:45;;;;;;;10.50;3.50;;;16.50;99.90;;;;;;5033291;28;20496;-68
2023/07/17 05:15:11;;;;;;;7.72;2.65;;;16.60;99.90;;;;;;5015832;28;20466;-68
2023/07/17 05:17:36;;;;;;;6.57;3.03;;;16.90;99.90;;;;;;5033124;28;20063;-69
2023/07/17 05:20:04;;;;;;;9.13;3.10;;;17.00;99.90;;;;;;5032904;28;20045;-69
2023/07/17 05:22:31;;;;;;;8.27;2.28;;;17.20;99.90;;;;;;5015600;28;20037;-69
2023/07/17 05:24:56;;;;;;;9.60;2.10;;;17.30;99.90;;;;;;5033191;28;20045;-69
2023/07/17 05:27:22;;;;;;;7.05;2.70;;;17.40;99.90;;;;;;5010314;28;20029;-69
2023/07/17 05:29:48;;;;;;;7.90;2.65;;;17.60;99.90;;;;;;5032464;28;20038;-68
2023/07/17 05:32:13;;;;;;;6.07;2.35;;;17.70;99.90;;;;;;5014687;28;20045;-69
2023/07/17 05:34:39;;;;;;;10.60;2.95;;;17.90;99.90;;;;;;5014969;28;20103;-68
2023/07/17 05:37:05;;;;;;;4.07;2.33;;;17.90;99.90;;;;;;5032650;28;20420;-69
2023/07/17 05:39:31;;;;;;;11.70;3.35;;;18.20;99.90;;;;;;5014994;28;20076;-68
2023/07/17 05:41:56;;;;;;;7.90;2.80;;;18.30;99.90;;;;;;5015064;28;20075;-69
2023/07/17 05:44:22;;;;;;;8.40;2.72;;;18.30;99.90;;;;;;5032166;28;20042;-69
2023/07/17 05:46:47;;;;;;;7.20;2.75;;;18.50;99.90;;;;;;5031907;28;20044;-69
2023/07/17 05:49:13;;;;;;;9.95;2.78;;;18.00;99.90;;;;;;5014568;28;20143;-69
2023/07/17 05:51:39;;;;;;;7.50;2.42;;;18.00;99.90;;;;;;5032797;28;20045;-69
2023/07/17 05:54:06;;;;;;;10.38;3.25;;;18.10;99.90;;;;;;5014929;28;20049;-69
2023/07/17 05:56:31;;;;;;;10.80;2.85;;;18.30;99.90;;;;;;5032102;28;20053;-69
2023/07/17 05:58:57;;;;;;;8.05;2.90;;;18.30;99.90;;;;;;5032009;28;20056;-70
2023/07/17 06:01:22;;;;;;;7.55;2.30;;;18.60;99.90;;;;;;5031845;28;20128;-69
2023/07/17 06:03:48;;;;;;;7.90;3.00;;;18.80;99.90;;;;;;5032170;28;20057;-70
2023/07/17 06:06:13;;;;;;;8.27;3.60;;;18.90;99.90;;;;;;5032136;28;20041;-69
2023/07/17 06:08:39;;;;;;;11.77;3.20;;;18.90;99.90;;;;;;5032221;28;20044;-70
2023/07/17 06:11:05;;;;;;;9.90;5.20;;;19.20;99.90;;;;;;5031875;28;20041;-70
2023/07/17 06:13:30;;;;;;;7.35;3.70;;;19.00;99.90;;;;;;5014238;28;20126;-70
2023/07/17 06:15:56;;;;;;;9.75;2.95;;;19.10;99.90;;;;;;5014100;28;20175;-69
2023/07/17 06:18:21;;;;;;;10.63;3.65;;;19.20;99.90;;;;;;5014286;28;20096;-70
2023/07/17 06:20:47;;;;;;;6.63;3.13;;;19.10;99.90;;;;;;5031603;28;20053;-70
2023/07/17 06:23:12;;;;;;;8.75;2.97;;;19.30;99.90;;;;;;5014513;28;20041;-70
2023/07/17 06:25:38;;;;;;;7.28;3.83;;;19.30;99.90;;;;;;5014341;28;20547;-71
2023/07/17 06:28:04;;;;;;;8.45;2.72;;;19.50;99.90;;;;;;5031153;28;20045;-70
2023/07/17 06:30:31;;;;;;;9.40;2.90;;;19.60;99.90;;;;;;5031581;28;20124;-70
2023/07/17 06:32:57;;;;;;;6.13;3.17;;;19.60;99.90;;;;;;5031646;28;20124;-70
2023/07/17 06:35:23;;;;;;;8.85;3.08;;;19.50;99.90;;;;;;5014318;28;20121;-70
2023/07/17 06:37:48;;;;;;;7.93;3.90;;;19.50;99.90;;;;;;4997427;28;20099;-70
2023/07/17 06:40:14;;;;;;;10.88;3.08;;;19.70;99.90;;;;;;5013612;28;20041;-70
2023/07/17 06:42:39;;;;;;;7.43;3.30;;;19.70;99.90;;;;;;5031613;28;20038;-70
2023/07/17 06:45:06;;;;;;;8.98;3.65;;;19.80;99.90;;;;;;5013885;28;20033;-70
2023/07/17 06:47:32;;;;;;;8.13;2.90;;;19.50;99.90;;;;;;5031181;28;20558;-70
2023/07/17 06:49:58;;;;;;;8.20;3.28;;;19.70;99.90;;;;;;5013964;28;20046;-71
2023/07/17 06:52:24;;;;;;;9.35;3.50;;;19.70;99.90;;;;;;5014115;28;20041;-70
2023/07/17 06:54:49;;;;;;;5.35;3.10;;;19.60;99.90;;;;;;5013805;28;20091;-70
2023/07/17 06:57:15;;;;;;;7.05;3.20;;;19.50;99.90;;;;;;5031928;28;20052;-70
2023/07/17 06:59:40;;;;;;;10.98;3.60;;;19.70;99.90;;;;;;5037547;28;20072;-70
2023/07/17 07:02:06;;;;;;;16.15;4.47;;;19.80;99.90;;;;;;5037659;28;20042;-70
2023/07/17 07:04:32;;;;;;;9.02;4.15;;;19.80;99.90;;;;;;5020644;28;20517;-71
2023/07/17 07:06:57;;;;;;;10.38;3.70;;;20.00;99.90;;;;;;5037802;28;20087;-70
2023/07/17 07:09:23;;;;;;;11.45;4.07;;;20.20;99.90;;;;;;5037729;28;20037;-71
2023/07/17 07:11:48;;;;;;;12.18;3.45;;;20.50;99.90;;;;;;5038063;28;20116;-70
2023/07/17 07:14:14;;;;;;;9.95;4.70;;;20.60;99.90;;;;;;5037934;28;20076;-70
2023/07/17 07:16:39;;;;;;;9.07;4.60;;;20.80;99.90;;;;;;5037531;28;20095;-71
2023/07/17 07:19:05;;;;;;;9.77;3.75;;;20.40;99.90;;;;;;5037658;28;20467;-70
2023/07/17 07:21:31;;;;;;;11.63;4.22;;;20.30;99.90;;;;;;5003632;28;20041;-70
2023/07/17 07:23:56;;;;;;;8.80;3.40;;;20.40;99.90;;;;;;5020152;28;20069;-70
2023/07/17 07:26:22;;;;;;;8.43;3.78;;;20.40;99.90;;;;;;5020026;28;20137;-71
2023/07/17 07:28:47;;;;;;;10.02;3.90;;;20.20;99.90;;;;;;5037824;28;20048;-70
2023/07/17 07:31:13;;;;;;;11.13;3.17;;;20.00;99.90;;;;;;5003961;28;20402;-70
2023/07/17 07:33:39;;;;;;;11.43;3.90;;;19.90;99.90;;;;;;5038088;28;20037;-70
2023/07/17 07:36:04;;;;;;;9.85;3.75;;;19.50;99.90;;;;;;5019855;28;20041;-70
2023/07/17 07:38:30;;;;;;;8.32;3.88;;;19.40;99.90;;;;;;5037825;28;20068;-70
2023/07/17 07:40:55;;;;;;;14.68;4.97;;;19.30;99.90;;;;;;5019982;28;20496;-70
2023/07/17 07:43:21;;;;;;;11.05;3.25;;;18.80;99.90;;;;;;5019876;28;20042;-71
2023/07/17 07:45:46;;;;;;;6.20;2.83;;;18.20;99.90;;;;;;5019868;28;20045;-71
2023/07/17 07:48:12;;;;;;;4.90;2.20;;;17.80;99.90;;;;;;5037932;28;20038;-70
2023/07/17 07:50:38;;;;;;;5.47;2.42;;;17.30;99.90;;;;;;5019801;28;20515;-71
2023/07/17 07:53:03;;;;;;;7.15;2.47;;;17.10;99.90;;;;;;5037784;28;20041;-71
2023/07/17 07:55:29;;;;;;;10.90;2.72;;;16.80;99.90;;;;;;5019938;28;20048;-70
2023/07/17 07:57:54;;;;;;;8.55;3.10;;;16.60;99.90;;;;;;5010764;28;20056;-70
2023/07/17 08:00:20;;;;;;;10.25;3.35;;;16.40;99.90;;;;;;5000399;28;20042;-70
2023/07/17 08:02:45;;;;;;;9.55;2.90;;;16.20;99.90;;;;;;5017609;28;20414;-70
2023/07/17 08:05:11;;;;;;;6.57;2.90;;;16.00;99.90;;;;;;5017646;28;20038;-70
2023/07/17 08:07:37;;;;;;;9.65;3.10;;;16.10;99.90;;;;;;5007741;28;20033;-70
2023/07/17 08:10:03;;;;;;;4.47;2.40;;;16.10;99.90;;;;;;5009622;28;20044;-70
2023/07/17 08:12:30;;;;;;;11.07;3.63;;;16.20;99.90;;;;;;5016819;28;20041;-70
2023/07/17 08:14:55;;;;;;;9.90;3.30;;;16.00;99.90;;;;;;5034463;28;20076;-70
2023/07/17 08:17:21;;;;;;;16.42;4.40;;;16.20;99.90;;;;;;5034155;28;20037;-70
2023/07/17 08:19:46;;;;;;;10.10;3.88;;;16.20;99.90;;;;;;5048563;22;20261;-69
2023/07/17 08:22:12;;;;;;;10.57;4.28;;;16.10;99.90;;;;;;5034315;28;20041;-69
2023/07/17 08:24:38;;;;;;;8.27;4.78;;;16.30;99.90;;;;;;5034198;28;20125;-69
2023/07/17 08:27:03;;;;;;;11.00;3.58;;;16.20;99.90;;;;;;5033442;28;20041;-69
2023/07/17 08:29:29;;;;;;;13.95;4.55;;;16.60;99.90;;;;;;5034048;28;20509;-69
2023/07/17 08:31:55;;;;;;;13.13;5.07;;;17.00;99.90;;;;;;5034208;28;20049;-70
2023/07/17 08:34:23;;;;;;;10.23;4.72;;;17.40;99.90;;;;;;5034225;28;20037;-69
2023/07/17 08:36:49;;;;;;;15.07;5.10;;;17.80;99.90;;;;;;5033911;28;20041;-69
2023/07/17 08:39:14;;;;;;;9.93;4.95;;;18.00;99.90;;;;;;5033827;28;20044;-69
2023/07/17 08:41:42;;;;;;;14.15;5.25;;;18.50;99.90;;;;;;5033854;28;20450;-69
2023/07/17 08:44:08;;;;;;;10.43;4.70;;;18.50;99.90;;;;;;5033860;28;20559;-69
2023/07/17 08:46:34;;;;;;;12.35;5.10;;;18.70;99.90;;;;;;5033724;28;20048;-69
2023/07/17 08:49:01;;;;;;;9.48;5.13;;;18.90;99.90;;;;;;5033940;28;20460;-69
2023/07/17 08:51:27;;;;;;;11.15;4.95;;;19.20;99.90;;;;;;5033799;28;20088;-70
2023/07/17 08:53:55;;;;;;;11.63;4.53;;;19.40;99.90;;;;;;5033824;28;20037;-69
2023/07/17 08:56:21;;;;;;;13.65;4.80;;;19.40;99.90;;;;;;5033459;28;20116;-69
2023/07/17 08:58:47;;;;;;;12.75;4.22;;;19.00;99.90;;;;;;5033567;28;20153;-69
2023/07/17 09:01:13;;;;;;;9.43;3.70;;;19.00;99.90;;;;;;5033576;28;20045;-69
2023/07/17 09:03:39;;;;;;;13.18;4.63;;;19.10;99.90;;;;;;5033711;28;20037;-69
2023/07/17 09:06:05;;;;;;;10.68;4.28;;;19.00;99.90;;;;;;5033321;28;20405;-69
2023/07/17 09:08:31;;;;;;;8.15;4.47;;;18.90;99.90;;;;;;5033559;28;20072;-70
2023/07/17 09:11:06;;;;;;;8.43;4.50;;;19.20;99.90;;;;;;5033374;28;20030;-70
2023/07/17 09:13:44;;;;;;;9.10;3.17;;;19.40;99.90;;;;;;5032224;28;20527;-70
2023/07/17 09:16:23;;;;;;;8.20;2.97;;;19.80;99.90;;;;;;5031845;28;20037;-69
2023/07/17 09:18:51;;;;;;;6.97;2.75;;;20.30;99.90;;;;;;5032299;28;20504;-70
2023/07/17 09:21:21;;;;;;;7.40;3.72;;;20.30;99.90;;;;;;5032506;28;20046;-70
2023/07/17 09:23:55;;;;;;;5.78;3.08;;;20.40;99.90;;;;;;5033138;28;20041;-70
2023/07/17 09:26:23;;;;;;;7.72;3.65;;;20.20;99.90;;;;;;5032893;28;20044;-70
2023/07/17 09:28:53;;;;;;;11.07;2.97;;;20.30;99.90;;;;;;5033213;28;20045;-70
2023/07/17 09:31:22;;;;;;;7.47;3.20;;;19.80;99.90;;;;;;5031870;28;20041;-70
2023/07/17 09:33:48;;;;;;;6.38;3.05;;;19.40;99.90;;;;;;5033010;28;20045;-70
2023/07/17 09:36:14;;;;;;;10.93;3.17;;;19.10;99.90;;;;;;5032477;28;20068;-70
2023/07/17 09:38:39;;;;;;;9.15;3.05;;;19.00;99.90;;;;;;5031652;28;20041;-70
2023/07/17 09:41:25;;;;;;;8.32;2.85;;;18.80;99.90;;;;;;5032830;28;20041;-70
2023/07/17 09:43:52;;;;;;;7.13;2.85;;;18.70;99.90;;;;;;5032912;28;20045;-70
2023/07/17 09:46:18;;;;;;;8.43;3.28;;;18.90;99.90;;;;;;5032464;28;20037;-70
2023/07/17 09:48:45;;;;;;;10.50;3.30;;;19.10;99.90;;;;;;5032655;28;20124;-70
2023/07/17 09:51:12;;;;;;;7.28;2.42;;;19.00;99.90;;;;;;5032694;28;20048;-70
2023/07/17 09:53:40;;;;;;;4.90;2.45;;;19.00;99.90;;;;;;5032819;28;20037;-70
2023/07/17 09:56:10;;;;;;;7.55;3.08;;;18.70;99.90;;;;;;5031063;28;20088;-70
2023/07/17 09:58:39;;;;;;;8.02;2.55;;;18.80;99.90;;;;;;5032642;28;20041;-70
2023/07/17 10:01:06;;;;;;;5.70;2.30;;;18.80;99.90;;;;;;5031269;28;20044;-70
2023/07/17 10:03:32;;;;;;;6.13;3.05;;;19.10;99.90;;;;;;5032363;28;20504;-70
2023/07/17 10:05:59;;;;;;;8.82;2.70;;;19.40;99.90;;;;;;5032062;28;20527;-70
2023/07/17 10:08:28;;;;;;;7.63;3.08;;;19.30;99.90;;;;;;5032044;28;20038;-70
2023/07/17 10:10:54;;;;;;;8.00;2.50;;;19.40;99.90;;;;;;5031846;28;20088;-70
2023/07/17 10:13:21;;;;;;;7.18;2.90;;;19.10;99.90;;;;;;5031804;28;20072;-70
2023/07/17 10:15:47;;;;;;;7.10;2.50;;;19.10;99.90;;;;;;5031770;28;20049;-70
2023/07/17 10:18:13;;;;;;;7.65;2.58;;;19.30;99.90;;;;;;5030888;28;20124;-70
2023/07/17 10:20:49;;;;;;;8.00;2.70;;;19.60;99.90;;;;;;5030583;28;20041;-70
2023/07/17 10:23:25;;;;;;;7.13;2.00;;;19.70;99.90;;;;;;5032212;28;20145;-70
2023/07/17 10:25:52;;;;;;;5.88;2.10;;;19.50;99.90;;;;;;5030565;28;20408;-70
2023/07/17 10:28:34;;;;;;;5.40;2.45;;;19.50;99.90;;;;;;5031987;28;20400;-70
2023/07/17 10:31:16;;;;;;;4.93;2.30;;;19.10;99.90;;;;;;5032105;28;20075;-69
2023/07/17 10:33:46;;;;;;;8.57;2.42;;;19.00;99.90;;;;;;5030164;28;20465;-69
2023/07/17 10:36:13;;;;;;;7.93;2.58;;;19.00;99.90;;;;;;5031742;28;20045;-70
2023/07/17 10:38:38;;;;;;;4.97;2.30;;;19.10;99.90;;;;;;5030544;28;20045;-70
2023/07/17 10:41:25;;;;;;;7.00;2.22;;;19.30;99.90;;;;;;5031818;28;20079;-70
2023/07/17 10:43:56;;;;;;;7.78;3.22;;;19.40;99.90;;;;;;5031716;28;20500;-70
2023/07/17 10:46:35;;;;;;;6.18;2.42;;;19.60;99.90;;;;;;5031465;28;20432;-70
2023/07/17 10:49:19;;;;;;;4.43;2.78;;;19.90;99.90;;;;;;5031304;28;20164;-70
2023/07/17 10:51:50;;;;;;;6.55;1.90;;;20.20;99.90;;;;;;5032104;28;20082;-70
2023/07/17 10:54:17;;;;;;;4.25;2.50;;;20.30;99.90;;;;;;5031680;28;20099;-71
2023/07/17 10:56:45;;;;;;;8.65;2.42;;;20.70;99.90;;;;;;5029436;28;20624;-70
2023/07/17 10:59:11;;;;;;;5.15;1.65;;;20.70;99.90;;;;;;5030328;28;20534;-70
2023/07/17 11:01:37;;;;;;;5.15;1.85;;;20.70;99.90;;;;;;5031475;28;20038;-70
2023/07/17 11:04:07;;;;;;;5.05;1.80;;;20.90;99.90;;;;;;5031791;28;20034;-70
2023/07/17 11:06:32;;;;;;;6.03;2.08;;;21.00;99.90;;;;;;5031249;28;20171;-70
2023/07/17 11:08:59;;;;;;;6.47;2.75;;;21.00;99.90;;;;;;5031562;28;20132;-69
2023/07/17 11:11:25;;;;;;;8.15;2.40;;;21.10;99.90;;;;;;5031339;28;20045;-70
2023/07/17 11:13:54;;;;;;;6.05;2.58;;;21.30;99.90;;;;;;5030265;28;20045;-70
2023/07/17 11:16:21;;;;;;;6.97;1.98;;;21.50;99.90;;;;;;5029332;28;20146;-70
2023/07/17 11:18:52;;;;;;;6.15;2.42;;;21.50;99.90;;;;;;5031282;28;20045;-70
2023/07/17 11:21:24;;;;;;;4.35;2.50;;;21.60;99.90;;;;;;5031207;28;20077;-70
2023/07/17 11:23:58;;;;;;;6.03;2.30;;;21.30;99.90;;;;;;5030712;28;20037;-70
2023/07/17 11:26:28;;;;;;;7.85;2.67;;;21.40;99.90;;;;;;5028991;28;20083;-70
2023/07/17 11:28:56;;;;;;;5.78;1.83;;;21.30;99.90;;;;;;5029641;28;20506;-70
2023/07/17 11:31:25;;;;;;;9.73;2.63;;;21.30;99.90;;;;;;5029573;28;20112;-70
2023/07/17 11:34:04;;;;;;;7.43;3.00;;;21.10;99.90;;;;;;5031002;28;20125;-70
2023/07/17 11:36:37;;;;;;;6.65;2.10;;;20.90;99.90;;;;;;5029066;28;20034;-70
2023/07/17 11:39:13;;;;;;;5.97;2.35;;;20.80;99.90;;;;;;5028122;28;20092;-70
2023/07/17 11:41:49;;;;;;;6.25;2.50;;;20.50;99.90;;;;;;5030323;28;20044;-69
2023/07/17 11:44:16;;;;;;;5.32;2.38;;;20.70;99.90;;;;;;5032536;28;20038;-70
2023/07/17 11:46:42;;;;;;;7.05;2.60;;;20.90;99.90;;;;;;5033811;28;20046;-70
2023/07/17 11:49:08;;;;;;;3.58;2.03;;;21.10;99.90;;;;;;5034167;28;20033;-70
2023/07/17 11:51:40;;;;;;;5.93;2.45;;;21.10;99.90;;;;;;5034326;28;20104;-70
2023/07/17 11:54:06;;;;;;;7.30;2.65;;;21.10;99.90;;;;;;5034437;28;20041;-70
2023/07/17 11:56:40;;;;;;;7.00;2.22;;;20.70;99.90;;;;;;5032567;28;20037;-70
2023/07/17 11:59:16;;;;;;;7.00;2.45;;;20.40;99.90;;;;;;5032802;28;20120;-70
2023/07/17 12:01:41;;;;;;;6.45;2.33;;;20.50;99.90;;;;;;5032328;28;20041;-70
2023/07/17 12:04:21;;;;;;;5.18;2.45;;;20.60;99.90;;;;;;5034649;28;20033;-70
2023/07/17 12:06:47;;;;;;;5.18;2.10;;;21.00;99.90;;;;;;5033319;28;20531;-70
2023/07/17 12:09:12;;;;;;;5.55;2.30;;;21.10;99.90;;;;;;5034639;28;20083;-70
2023/07/17 12:11:38;;;;;;;4.20;1.92;;;21.30;99.90;;;;;;5034657;28;20447;-70
2023/07/17 12:14:04;;;;;;;5.68;2.30;;;21.30;99.90;;;;;;5034469;28;20045;-70
2023/07/17 12:16:30;;;;;;;6.00;2.15;;;21.00;99.90;;;;;;5034011;28;20042;-70
2023/07/17 12:18:55;;;;;;;7.00;2.45;;;20.90;99.90;;;;;;5034035;28;20034;-70
2023/07/17 12:21:21;;;;;;;3.90;1.90;;;20.70;99.90;;;;;;5033967;28;20420;-70
2023/07/17 12:23:46;;;;;;;5.55;1.60;;;20.50;99.90;;;;;;5034005;28;20412;-70
2023/07/17 12:26:12;;;;;;;3.28;1.45;;;20.50;99.90;;;;;;5033921;28;20045;-70
2023/07/17 12:28:38;;;;;;;3.45;1.65;;;20.60;99.90;;;;;;5034255;28;20077;-70
2023/07/17 12:31:03;;;;;;;4.63;1.50;;;20.80;99.90;;;;;;5033974;28;20081;-70
2023/07/17 12:33:29;;;;;;;5.57;1.30;;;21.10;99.90;;;;;;5034246;28;20436;-70
2023/07/17 12:35:54;;;;;;;3.15;1.33;;;21.20;99.20;;;;;;5032835;28;20048;-70
2023/07/17 12:38:20;;;;;;;3.20;1.73;;;21.30;98.20;;;;;;5034034;28;20045;-70
2023/07/17 12:40:46;;;;;;;4.28;1.70;;;21.50;98.10;;;;;;5033978;28;20037;-70
2023/07/17 12:43:12;;;;;;;5.32;1.35;;;21.30;95.90;;;;;;5033749;28;20025;-70